sensor_id;sensor_type;location;lat;lon;timestamp;temperature;humidity
20558;DHT22;10437;48.156;11.530;2023-04-01T00:04:57;8.70;99.90
20558;DHT22;10437;48.156;11.530;2023-04-01T00:22:08;8.70;99.90
20558;DHT22;10437;48.156;11.530;2023-04-01T00:39:23;8.50;99.90
20558;DHT22;10437;48.156;11.530;2023-04-01T00:44:20;8.50;99.90
20558;DHT22;10437;48.156;11.530;2023-04-01T00:49:16;8.50;99.90
20558;DHT22;10437;48.156;11.530;2023-04-01T00:51:45;8.50;99.90
20558;DHT22;10437;48.156;11.530;2023-04-01T00:54:14;8.40;99.90
20558;DHT22;10437;48.156;11.530;2023-04-01T00:56:48;8.50;99.90
20558;DHT22;10437;48.156;11.530;2023-04-01T00:59:20;8.50;99.90
20558;DHT22;10437;48.156;11.530;2023-04-01T01:04:25;8.50;99.90
20558;DHT22;10437;48.156;11.530;2023-04-01T01:06:59;8.30;99.90
20558;DHT22;10437;48.156;11.530;2023-04-01T01:09:38;8.50;99.90
20558;DHT22;10437;48.156;11.530;2023-04-01T01:14:50;8.50;99.90
20558;DHT22;10437;48.156;11.530;2023-04-01T01:17:27;8.60;99.90
20558;DHT22;10437;48.156;11.530;2023-04-01T01:28:45;8.60;99.90
20558;DHT22;10437;48.156;11.530;2023-04-01T01:31:20;8.60;99.90
20558;DHT22;10437;48.156;11.530;2023-04-01T01:34:00;8.70;99.90
20558;DHT22;10437;48.156;11.530;2023-04-01T01:36:32;8.60;99.90
20558;DHT22;10437;48.156;11.530;2023-04-01T01:39:01;8.70;99.90
20558;DHT22;10437;48.156;11.530;2023-04-01T01:41:29;8.60;99.90
20558;DHT22;10437;48.156;11.530;2023-04-01T01:48:55;8.60;99.90
20558;DHT22;10437;48.156;11.530;2023-04-01T01:53:51;8.60;99.90
20558;DHT22;10437;48.156;11.530;2023-04-01T01:58:49;8.60;99.90
20558;DHT22;10437;48.156;11.530;2023-04-01T02:01:20;8.60;99.90
20558;DHT22;10437;48.156;11.530;2023-04-01T02:03:49;8.70;99.90
20558;DHT22;10437;48.156;11.530;2023-04-01T02:06:18;8.60;99.90
20558;DHT22;10437;48.156;11.530;2023-04-01T02:08:52;8.60;99.90
20558;DHT22;10437;48.156;11.530;2023-04-01T02:11:26;8.70;99.90
20558;DHT22;10437;48.156;11.530;2023-04-01T02:16:26;8.60;99.90
20558;DHT22;10437;48.156;11.530;2023-04-01T02:18:56;8.70;99.90
20558;DHT22;10437;48.156;11.530;2023-04-01T02:21:27;8.80;99.90
20558;DHT22;10437;48.156;11.530;2023-04-01T02:23:58;8.70;99.90
20558;DHT22;10437;48.156;11.530;2023-04-01T02:31:21;8.70;99.90
20558;DHT22;10437;48.156;11.530;2023-04-01T02:38:45;8.60;99.90
20558;DHT22;10437;48.156;11.530;2023-04-01T02:41:14;8.70;99.90
20558;DHT22;10437;48.156;11.530;2023-04-01T02:58:26;8.40;99.90
20558;DHT22;10437;48.156;11.530;2023-04-01T03:15:37;8.60;99.90
20558;DHT22;10437;48.156;11.530;2023-04-01T03:40:11;10.60;99.90
20558;DHT22;10437;48.156;11.530;2023-04-01T03:45:06;8.30;99.90
20558;DHT22;10437;48.156;11.530;2023-04-01T03:50:02;8.20;99.90
20558;DHT22;10437;48.156;11.530;2023-04-01T04:07:13;8.20;99.90
20558;DHT22;10437;48.156;11.530;2023-04-01T04:19:31;8.10;99.90
20558;DHT22;10437;48.156;11.530;2023-04-01T04:24:28;8.10;99.90
20558;DHT22;10437;48.156;11.530;2023-04-01T04:41:41;8.20;99.90
20558;DHT22;10437;48.156;11.530;2023-04-01T04:58:57;8.30;99.90
20558;DHT22;10437;48.156;11.530;2023-04-01T05:11:15;8.40;99.90
20558;DHT22;10437;48.156;11.530;2023-04-01T05:16:13;8.40;99.90
20558;DHT22;10437;48.156;11.530;2023-04-01T05:21:09;8.40;99.90
20558;DHT22;10437;48.156;11.530;2023-04-01T05:26:05;8.70;99.90
20558;DHT22;10437;48.156;11.530;2023-04-01T05:33:28;8.60;99.90
20558;DHT22;10437;48.156;11.530;2023-04-01T05:50:41;8.70;99.90
20558;DHT22;10437;48.156;11.530;2023-04-01T06:05:28;8.70;99.90
20558;DHT22;10437;48.156;11.530;2023-04-01T06:07:59;8.70;99.90
20558;DHT22;10437;48.156;11.530;2023-04-01T06:10:38;8.80;99.90
20558;DHT22;10437;48.156;11.530;2023-04-01T06:13:10;8.70;99.90
20558;DHT22;10437;48.156;11.530;2023-04-01T06:15:48;8.80;99.90
20558;DHT22;10437;48.156;11.530;2023-04-01T06:18:38;8.80;99.90
20558;DHT22;10437;48.156;11.530;2023-04-01T06:21:25;8.90;99.90
20558;DHT22;10437;48.156;11.530;2023-04-01T06:26:38;8.90;99.90
20558;DHT22;10437;48.156;11.530;2023-04-01T06:29:27;8.90;99.90
20558;DHT22;10437;48.156;11.530;2023-04-01T06:32:20;9.00;99.90
20558;DHT22;10437;48.156;11.530;2023-04-01T06:35:00;9.20;99.90
20558;DHT22;10437;48.156;11.530;2023-04-01T06:37:48;9.00;99.90
20558;DHT22;10437;48.156;11.530;2023-04-01T06:40:40;9.10;99.90
20558;DHT22;10437;48.156;11.530;2023-04-01T06:43:15;9.10;99.90
20558;DHT22;10437;48.156;11.530;2023-04-01T06:45:48;9.10;99.90
20558;DHT22;10437;48.156;11.530;2023-04-01T06:48:38;9.20;99.90
20558;DHT22;10437;48.156;11.530;2023-04-01T06:51:16;9.20;99.90
20558;DHT22;10437;48.156;11.530;2023-04-01T06:53:52;9.20;99.90
20558;DHT22;10437;48.156;11.530;2023-04-01T06:56:26;9.30;99.90
20558;DHT22;10437;48.156;11.530;2023-04-01T06:58:56;9.30;99.90
20558;DHT22;10437;48.156;11.530;2023-04-01T07:01:29;9.50;99.90
20558;DHT22;10437;48.156;11.530;2023-04-01T07:03:58;9.60;99.90
20558;DHT22;10437;48.156;11.530;2023-04-01T07:06:30;9.80;99.90
20558;DHT22;10437;48.156;11.530;2023-04-01T07:09:00;9.80;99.90
20558;DHT22;10437;48.156;11.530;2023-04-01T07:14:01;9.60;99.90
20558;DHT22;10437;48.156;11.530;2023-04-01T07:19:02;9.80;99.90
20558;DHT22;10437;48.156;11.530;2023-04-01T07:21:33;9.80;99.90
20558;DHT22;10437;48.156;11.530;2023-04-01T07:26:34;10.50;99.90
20558;DHT22;10437;48.156;11.530;2023-04-01T07:34:25;11.00;99.90
20558;DHT22;10437;48.156;11.530;2023-04-01T07:36:57;11.10;99.90
20558;DHT22;10437;48.156;11.530;2023-04-01T07:39:35;11.20;99.90
20558;DHT22;10437;48.156;11.530;2023-04-01T07:42:10;11.20;99.90
20558;DHT22;10437;48.156;11.530;2023-04-01T07:44:42;11.10;99.90
20558;DHT22;10437;48.156;11.530;2023-04-01T07:47:21;11.30;99.90
20558;DHT22;10437;48.156;11.530;2023-04-01T07:49:59;11.30;99.90
20558;DHT22;10437;48.156;11.530;2023-04-01T07:52:42;11.30;99.90
20558;DHT22;10437;48.156;11.530;2023-04-01T07:55:14;11.30;99.90
20558;DHT22;10437;48.156;11.530;2023-04-01T07:57:49;11.30;99.90
20558;DHT22;10437;48.156;11.530;2023-04-01T08:00:22;11.30;99.90
20558;DHT22;10437;48.156;11.530;2023-04-01T08:03:08;11.20;99.90
20558;DHT22;10437;48.156;11.530;2023-04-01T08:08:15;10.80;99.90
20558;DHT22;10437;48.156;11.530;2023-04-01T08:10:46;10.90;99.90
20558;DHT22;10437;48.156;11.530;2023-04-01T08:13:28;10.80;99.90
20558;DHT22;10437;48.156;11.530;2023-04-01T08:16:06;10.90;99.90
20558;DHT22;10437;48.156;11.530;2023-04-01T08:18:40;10.60;99.90
20558;DHT22;10437;48.156;11.530;2023-04-01T08:21:14;10.80;99.90
20558;DHT22;10437;48.156;11.530;2023-04-01T08:23:44;10.80;99.90
20558;DHT22;10437;48.156;11.530;2023-04-01T08:26:22;10.90;99.90
20558;DHT22;10437;48.156;11.530;2023-04-01T08:28:56;10.90;99.90
20558;DHT22;10437;48.156;11.530;2023-04-01T08:31:30;10.90;99.90
20558;DHT22;10437;48.156;11.530;2023-04-01T08:34:00;11.10;99.90
20558;DHT22;10437;48.156;11.530;2023-04-01T08:36:30;11.30;99.90
20558;DHT22;10437;48.156;11.530;2023-04-01T08:39:02;11.50;99.90
20558;DHT22;10437;48.156;11.530;2023-04-01T08:44:38;12.20;99.90
20558;DHT22;10437;48.156;11.530;2023-04-01T08:47:29;11.70;99.90
20558;DHT22;10437;48.156;11.530;2023-04-01T08:50:26;12.10;99.90
20558;DHT22;10437;48.156;11.530;2023-04-01T08:53:03;12.20;99.90
20558;DHT22;10437;48.156;11.530;2023-04-01T08:55:46;12.10;99.90
20558;DHT22;10437;48.156;11.530;2023-04-01T08:58:33;12.00;99.90
20558;DHT22;10437;48.156;11.530;2023-04-01T09:01:13;12.10;99.90
20558;DHT22;10437;48.156;11.530;2023-04-01T09:06:50;12.00;99.90
20558;DHT22;10437;48.156;11.530;2023-04-01T09:09:46;12.30;99.90
20558;DHT22;10437;48.156;11.530;2023-04-01T09:12:31;12.40;99.90
20558;DHT22;10437;48.156;11.530;2023-04-01T09:15:36;12.50;99.90
20558;DHT22;10437;48.156;11.530;2023-04-01T09:21:02;12.60;99.90
20558;DHT22;10437;48.156;11.530;2023-04-01T09:23:47;12.40;99.90
20558;DHT22;10437;48.156;11.530;2023-04-01T09:26:38;12.40;99.90
20558;DHT22;10437;48.156;11.530;2023-04-01T09:29:21;12.10;99.90
20558;DHT22;10437;48.156;11.530;2023-04-01T09:32:33;11.90;99.90
20558;DHT22;10437;48.156;11.530;2023-04-01T09:35:21;12.00;99.90
20558;DHT22;10437;48.156;11.530;2023-04-01T09:37:54;12.10;99.90
20558;DHT22;10437;48.156;11.530;2023-04-01T09:40:33;12.20;99.90
20558;DHT22;10437;48.156;11.530;2023-04-01T09:43:17;12.40;99.90
20558;DHT22;10437;48.156;11.530;2023-04-01T09:45:56;12.40;99.90
20558;DHT22;10437;48.156;11.530;2023-04-01T09:48:46;12.50;99.90
20558;DHT22;10437;48.156;11.530;2023-04-01T09:51:26;12.60;99.90
20558;DHT22;10437;48.156;11.530;2023-04-01T09:54:09;12.70;99.90
20558;DHT22;10437;48.156;11.530;2023-04-01T09:56:59;12.60;99.90
20558;DHT22;10437;48.156;11.530;2023-04-01T10:02:57;12.50;99.90
20558;DHT22;10437;48.156;11.530;2023-04-01T10:08:51;12.40;99.90
20558;DHT22;10437;48.156;11.530;2023-04-01T10:11:53;12.50;99.90
20558;DHT22;10437;48.156;11.530;2023-04-01T10:14:36;12.40;99.90
20558;DHT22;10437;48.156;11.530;2023-04-01T10:20:34;12.50;99.90
20558;DHT22;10437;48.156;11.530;2023-04-01T10:23:27;12.50;99.90
20558;DHT22;10437;48.156;11.530;2023-04-01T10:26:29;12.60;99.90
20558;DHT22;10437;48.156;11.530;2023-04-01T10:29:27;12.60;99.90
20558;DHT22;10437;48.156;11.530;2023-04-01T10:35:04;12.80;99.90
20558;DHT22;10437;48.156;11.530;2023-04-01T10:38:08;12.40;99.90
20558;DHT22;10437;48.156;11.530;2023-04-01T10:41:04;12.60;99.90
20558;DHT22;10437;48.156;11.530;2023-04-01T10:44:11;12.70;99.90
20558;DHT22;10437;48.156;11.530;2023-04-01T10:47:20;12.60;99.90
20558;DHT22;10437;48.156;11.530;2023-04-01T10:56:40;12.20;99.90
20558;DHT22;10437;48.156;11.530;2023-04-01T10:59:33;12.20;99.90
20558;DHT22;10437;48.156;11.530;2023-04-01T11:02:43;12.00;99.90
20558;DHT22;10437;48.156;11.530;2023-04-01T11:05:48;11.80;99.90
20558;DHT22;10437;48.156;11.530;2023-04-01T11:12:00;11.40;99.90
20558;DHT22;10437;48.156;11.530;2023-04-01T11:18:25;11.30;99.90
20558;DHT22;10437;48.156;11.530;2023-04-01T11:21:36;11.30;99.90
20558;DHT22;10437;48.156;11.530;2023-04-01T11:27:06;11.50;99.90
20558;DHT22;10437;48.156;11.530;2023-04-01T11:32:44;11.50;99.90
20558;DHT22;10437;48.156;11.530;2023-04-01T11:35:30;11.70;99.90
20558;DHT22;10437;48.156;11.530;2023-04-01T11:38:07;11.60;99.90
20558;DHT22;10437;48.156;11.530;2023-04-01T11:40:42;11.60;99.90
20558;DHT22;10437;48.156;11.530;2023-04-01T11:43:15;11.60;99.90
20558;DHT22;10437;48.156;11.530;2023-04-01T11:45:47;11.40;99.90
20558;DHT22;10437;48.156;11.530;2023-04-01T11:48:38;11.30;99.90
20558;DHT22;10437;48.156;11.530;2023-04-01T11:54:05;10.90;99.90
20558;DHT22;10437;48.156;11.530;2023-04-01T11:59:29;11.20;99.90
20558;DHT22;10437;48.156;11.530;2023-04-01T12:02:08;10.70;99.90
20558;DHT22;10437;48.156;11.530;2023-04-01T12:08:06;10.40;99.90
20558;DHT22;10437;48.156;11.530;2023-04-01T12:10:39;10.30;99.90
20558;DHT22;10437;48.156;11.530;2023-04-01T12:13:18;10.20;99.90
20558;DHT22;10437;48.156;11.530;2023-04-01T12:15:59;10.00;99.90
20558;DHT22;10437;48.156;11.530;2023-04-01T12:18:36;10.00;99.90
20558;DHT22;10437;48.156;11.530;2023-04-01T12:23:59;10.00;99.90
20558;DHT22;10437;48.156;11.530;2023-04-01T12:26:42;9.90;99.90
20558;DHT22;10437;48.156;11.530;2023-04-01T12:29:41;9.80;99.90
20558;DHT22;10437;48.156;11.530;2023-04-01T12:32:17;9.70;99.90
20558;DHT22;10437;48.156;11.530;2023-04-01T12:35:17;9.80;99.90
20558;DHT22;10437;48.156;11.530;2023-04-01T12:40:39;9.60;99.90
20558;DHT22;10437;48.156;11.530;2023-04-01T12:46:11;9.70;99.90
20558;DHT22;10437;48.156;11.530;2023-04-01T12:57:33;9.60;99.90
20558;DHT22;10437;48.156;11.530;2023-04-01T13:03:20;9.60;99.90
20558;DHT22;10437;48.156;11.530;2023-04-01T13:08:54;9.50;99.90
20558;DHT22;10437;48.156;11.530;2023-04-01T13:11:33;9.50;99.90
20558;DHT22;10437;48.156;11.530;2023-04-01T13:16:51;9.50;99.90
20558;DHT22;10437;48.156;11.530;2023-04-01T13:19:25;9.50;99.90
20558;DHT22;10437;48.156;11.530;2023-04-01T13:21:57;9.50;99.90
20558;DHT22;10437;48.156;11.530;2023-04-01T13:24:36;9.40;99.90
20558;DHT22;10437;48.156;11.530;2023-04-01T13:27:11;9.40;99.90
20558;DHT22;10437;48.156;11.530;2023-04-01T13:29:45;9.50;99.90
20558;DHT22;10437;48.156;11.530;2023-04-01T13:32:23;9.50;99.90
20558;DHT22;10437;48.156;11.530;2023-04-01T13:35:20;9.40;99.90
20558;DHT22;10437;48.156;11.530;2023-04-01T13:37:58;9.40;99.90
20558;DHT22;10437;48.156;11.530;2023-04-01T13:40:35;9.50;99.90
20558;DHT22;10437;48.156;11.530;2023-04-01T13:45:46;9.40;99.90
20558;DHT22;10437;48.156;11.530;2023-04-01T13:48:29;9.40;99.90
20558;DHT22;10437;48.156;11.530;2023-04-01T13:51:13;9.40;99.90
20558;DHT22;10437;48.156;11.530;2023-04-01T13:53:59;9.40;99.90
20558;DHT22;10437;48.156;11.530;2023-04-01T13:56:34;9.30;99.90
20558;DHT22;10437;48.156;11.530;2023-04-01T13:59:28;9.30;99.90
20558;DHT22;10437;48.156;11.530;2023-04-01T14:02:07;9.40;99.90
20558;DHT22;10437;48.156;11.530;2023-04-01T14:04:59;9.50;99.90
20558;DHT22;10437;48.156;11.530;2023-04-01T14:07:40;9.60;99.90
20558;DHT22;10437;48.156;11.530;2023-04-01T14:10:19;9.60;99.90
20558;DHT22;10437;48.156;11.530;2023-04-01T14:12:57;9.60;99.90
20558;DHT22;10437;48.156;11.530;2023-04-01T14:15:45;9.70;99.90
20558;DHT22;10437;48.156;11.530;2023-04-01T14:18:25;9.70;99.90
20558;DHT22;10437;48.156;11.530;2023-04-01T14:21:11;9.60;99.90
20558;DHT22;10437;48.156;11.530;2023-04-01T14:23:58;9.60;99.90
20558;DHT22;10437;48.156;11.530;2023-04-01T14:29:29;9.80;99.90
20558;DHT22;10437;48.156;11.530;2023-04-01T14:32:07;9.80;99.90
20558;DHT22;10437;48.156;11.530;2023-04-01T14:34:56;9.90;99.90
20558;DHT22;10437;48.156;11.530;2023-04-01T14:37:41;9.80;99.90
20558;DHT22;10437;48.156;11.530;2023-04-01T14:40:26;10.00;99.90
20558;DHT22;10437;48.156;11.530;2023-04-01T14:43:06;10.00;99.90
20558;DHT22;10437;48.156;11.530;2023-04-01T14:48:48;9.90;99.90
20558;DHT22;10437;48.156;11.530;2023-04-01T14:56:35;10.10;99.90
20558;DHT22;10437;48.156;11.530;2023-04-01T14:59:09;9.90;99.90
20558;DHT22;10437;48.156;11.530;2023-04-01T15:01:43;9.90;99.90
20558;DHT22;10437;48.156;11.530;2023-04-01T15:07:15;10.00;99.90
20558;DHT22;10437;48.156;11.530;2023-04-01T15:09:51;10.00;99.90
20558;DHT22;10437;48.156;11.530;2023-04-01T15:12:26;9.90;99.90
20558;DHT22;10437;48.156;11.530;2023-04-01T15:15:09;9.80;99.90
20558;DHT22;10437;48.156;11.530;2023-04-01T15:17:58;9.80;99.90
20558;DHT22;10437;48.156;11.530;2023-04-01T15:20:47;9.60;99.90
20558;DHT22;10437;48.156;11.530;2023-04-01T15:26:09;9.90;99.90
20558;DHT22;10437;48.156;11.530;2023-04-01T15:28:40;9.90;99.90
20558;DHT22;10437;48.156;11.530;2023-04-01T15:31:14;10.00;99.90
20558;DHT22;10437;48.156;11.530;2023-04-01T15:33:48;9.90;99.90
20558;DHT22;10437;48.156;11.530;2023-04-01T15:36:29;10.00;99.90
20558;DHT22;10437;48.156;11.530;2023-04-01T15:39:05;10.00;99.90
20558;DHT22;10437;48.156;11.530;2023-04-01T15:41:44;10.10;99.90
20558;DHT22;10437;48.156;11.530;2023-04-01T15:44:47;10.10;99.90
20558;DHT22;10437;48.156;11.530;2023-04-01T15:47:32;10.20;99.90
20558;DHT22;10437;48.156;11.530;2023-04-01T15:50:23;10.10;99.90
20558;DHT22;10437;48.156;11.530;2023-04-01T15:53:03;10.20;99.90
20558;DHT22;10437;48.156;11.530;2023-04-01T15:55:37;10.20;99.90
20558;DHT22;10437;48.156;11.530;2023-04-01T16:00:51;10.30;99.90
20558;DHT22;10437;48.156;11.530;2023-04-01T16:03:30;10.30;99.90
20558;DHT22;10437;48.156;11.530;2023-04-01T16:06:18;10.30;99.90
20558;DHT22;10437;48.156;11.530;2023-04-01T16:11:27;10.60;99.90
20558;DHT22;10437;48.156;11.530;2023-04-01T16:14:04;10.40;99.90
20558;DHT22;10437;48.156;11.530;2023-04-01T16:16:46;10.30;99.90
20558;DHT22;10437;48.156;11.530;2023-04-01T16:19:32;10.30;99.90
20558;DHT22;10437;48.156;11.530;2023-04-01T16:22:05;10.20;99.90
20558;DHT22;10437;48.156;11.530;2023-04-01T16:24:35;10.30;99.90
20558;DHT22;10437;48.156;11.530;2023-04-01T16:29:43;10.30;99.90
20558;DHT22;10437;48.156;11.530;2023-04-01T16:32:34;10.40;99.90
20558;DHT22;10437;48.156;11.530;2023-04-01T16:35:21;10.30;99.90
20558;DHT22;10437;48.156;11.530;2023-04-01T16:37:52;10.30;99.90
20558;DHT22;10437;48.156;11.530;2023-04-01T16:40:25;10.30;99.90
20558;DHT22;10437;48.156;11.530;2023-04-01T16:43:10;10.30;99.90
20558;DHT22;10437;48.156;11.530;2023-04-01T16:45:42;10.20;99.90
20558;DHT22;10437;48.156;11.530;2023-04-01T16:48:13;10.30;99.90
20558;DHT22;10437;48.156;11.530;2023-04-01T16:50:52;10.10;99.90
20558;DHT22;10437;48.156;11.530;2023-04-01T16:53:30;10.10;99.90
20558;DHT22;10437;48.156;11.530;2023-04-01T16:56:07;10.20;99.90
20558;DHT22;10437;48.156;11.530;2023-04-01T16:58:41;10.10;99.90
20558;DHT22;10437;48.156;11.530;2023-04-01T17:01:13;10.00;99.90
20558;DHT22;10437;48.156;11.530;2023-04-01T17:03:44;10.00;99.90
20558;DHT22;10437;48.156;11.530;2023-04-01T17:06:22;10.00;99.90
20558;DHT22;10437;48.156;11.530;2023-04-01T17:09:11;10.10;99.90
20558;DHT22;10437;48.156;11.530;2023-04-01T17:11:51;10.00;99.90
20558;DHT22;10437;48.156;11.530;2023-04-01T17:17:00;10.00;99.90
20558;DHT22;10437;48.156;11.530;2023-04-01T17:19:46;10.00;99.90
20558;DHT22;10437;48.156;11.530;2023-04-01T17:22:25;10.00;99.90
20558;DHT22;10437;48.156;11.530;2023-04-01T17:25:02;9.90;99.90
20558;DHT22;10437;48.156;11.530;2023-04-01T17:27:40;9.90;99.90
20558;DHT22;10437;48.156;11.530;2023-04-01T17:30:19;10.00;99.90
20558;DHT22;10437;48.156;11.530;2023-04-01T17:33:11;10.00;99.90
20558;DHT22;10437;48.156;11.530;2023-04-01T17:35:48;10.00;99.90
20558;DHT22;10437;48.156;11.530;2023-04-01T17:38:34;10.00;99.90
20558;DHT22;10437;48.156;11.530;2023-04-01T17:41:10;10.00;99.90
20558;DHT22;10437;48.156;11.530;2023-04-01T17:43:48;10.00;99.90
20558;DHT22;10437;48.156;11.530;2023-04-01T17:46:28;9.90;99.90
20558;DHT22;10437;48.156;11.530;2023-04-01T17:49:05;10.00;99.90
20558;DHT22;10437;48.156;11.530;2023-04-01T17:51:42;10.00;99.90
20558;DHT22;10437;48.156;11.530;2023-04-01T17:54:20;10.00;99.90
20558;DHT22;10437;48.156;11.530;2023-04-01T17:57:01;10.00;99.90
20558;DHT22;10437;48.156;11.530;2023-04-01T17:59:35;9.90;99.90
20558;DHT22;10437;48.156;11.530;2023-04-01T18:02:12;9.90;99.90
20558;DHT22;10437;48.156;11.530;2023-04-01T18:04:58;9.90;99.90
20558;DHT22;10437;48.156;11.530;2023-04-01T18:07:48;9.90;99.90
20558;DHT22;10437;48.156;11.530;2023-04-01T18:10:23;9.90;99.90
20558;DHT22;10437;48.156;11.530;2023-04-01T18:13:08;9.90;99.90
20558;DHT22;10437;48.156;11.530;2023-04-01T18:15:45;9.90;99.90
20558;DHT22;10437;48.156;11.530;2023-04-01T18:18:31;9.90;99.90
20558;DHT22;10437;48.156;11.530;2023-04-01T18:21:06;9.90;99.90
20558;DHT22;10437;48.156;11.530;2023-04-01T18:23:43;9.90;99.90
20558;DHT22;10437;48.156;11.530;2023-04-01T18:26:18;9.90;99.90
20558;DHT22;10437;48.156;11.530;2023-04-01T18:28:52;9.90;99.90
20558;DHT22;10437;48.156;11.530;2023-04-01T18:31:23;9.80;99.90
20558;DHT22;10437;48.156;11.530;2023-04-01T18:33:56;9.60;99.90
20558;DHT22;10437;48.156;11.530;2023-04-01T18:36:38;9.80;99.90
20558;DHT22;10437;48.156;11.530;2023-04-01T18:39:11;9.80;99.90
20558;DHT22;10437;48.156;11.530;2023-04-01T18:41:48;9.70;99.90
20558;DHT22;10437;48.156;11.530;2023-04-01T18:44:28;9.80;99.90
20558;DHT22;10437;48.156;11.530;2023-04-01T18:47:03;9.70;99.90
20558;DHT22;10437;48.156;11.530;2023-04-01T18:49:40;9.70;99.90
20558;DHT22;10437;48.156;11.530;2023-04-01T18:52:16;9.80;99.90
20558;DHT22;10437;48.156;11.530;2023-04-01T18:54:47;9.70;99.90
20558;DHT22;10437;48.156;11.530;2023-04-01T18:57:18;9.70;99.90
20558;DHT22;10437;48.156;11.530;2023-04-01T18:59:50;9.60;99.90
20558;DHT22;10437;48.156;11.530;2023-04-01T19:02:30;9.70;99.90
20558;DHT22;10437;48.156;11.530;2023-04-01T19:05:04;10.30;99.90
20558;DHT22;10437;48.156;11.530;2023-04-01T19:07:46;9.60;99.90
20558;DHT22;10437;48.156;11.530;2023-04-01T19:10:17;9.60;99.90
20558;DHT22;10437;48.156;11.530;2023-04-01T19:12:55;9.60;99.90
20558;DHT22;10437;48.156;11.530;2023-04-01T19:15:33;9.70;99.90
20558;DHT22;10437;48.156;11.530;2023-04-01T19:18:22;9.60;99.90
20558;DHT22;10437;48.156;11.530;2023-04-01T19:20:55;9.60;99.90
20558;DHT22;10437;48.156;11.530;2023-04-01T19:23:57;9.70;99.90
20558;DHT22;10437;48.156;11.530;2023-04-01T19:26:29;9.50;99.90
20558;DHT22;10437;48.156;11.530;2023-04-01T19:29:03;9.40;99.90
20558;DHT22;10437;48.156;11.530;2023-04-01T19:31:40;9.40;99.90
20558;DHT22;10437;48.156;11.530;2023-04-01T19:34:22;9.40;99.90
20558;DHT22;10437;48.156;11.530;2023-04-01T19:36:55;9.40;99.90
20558;DHT22;10437;48.156;11.530;2023-04-01T19:39:35;9.40;99.90
20558;DHT22;10437;48.156;11.530;2023-04-01T19:42:10;9.30;99.90
20558;DHT22;10437;48.156;11.530;2023-04-01T19:44:46;9.00;99.90
20558;DHT22;10437;48.156;11.530;2023-04-01T19:47:23;9.30;99.90
20558;DHT22;10437;48.156;11.530;2023-04-01T19:49:57;9.30;99.90
20558;DHT22;10437;48.156;11.530;2023-04-01T19:52:31;9.20;99.90
20558;DHT22;10437;48.156;11.530;2023-04-01T19:55:06;9.20;99.90
20558;DHT22;10437;48.156;11.530;2023-04-01T19:57:46;9.20;99.90
20558;DHT22;10437;48.156;11.530;2023-04-01T20:00:20;9.20;99.90
20558;DHT22;10437;48.156;11.530;2023-04-01T20:03:01;9.10;99.90
20558;DHT22;10437;48.156;11.530;2023-04-01T20:05:43;8.70;99.90
20558;DHT22;10437;48.156;11.530;2023-04-01T20:08:17;9.10;99.90
20558;DHT22;10437;48.156;11.530;2023-04-01T20:10:54;9.00;99.90
20558;DHT22;10437;48.156;11.530;2023-04-01T20:13:28;8.90;99.90
20558;DHT22;10437;48.156;11.530;2023-04-01T20:18:36;9.00;99.90
20558;DHT22;10437;48.156;11.530;2023-04-01T20:21:15;9.30;99.90
20558;DHT22;10437;48.156;11.530;2023-04-01T20:23:47;8.90;99.90
20558;DHT22;10437;48.156;11.530;2023-04-01T20:26:21;8.90;99.90
20558;DHT22;10437;48.156;11.530;2023-04-01T20:29:01;8.90;99.90
20558;DHT22;10437;48.156;11.530;2023-04-01T20:31:31;8.90;99.90
20558;DHT22;10437;48.156;11.530;2023-04-01T20:34:45;8.80;99.90
20558;DHT22;10437;48.156;11.530;2023-04-01T20:37:29;10.00;99.90
20558;DHT22;10437;48.156;11.530;2023-04-01T20:40:30;8.80;99.90
20558;DHT22;10437;48.156;11.530;2023-04-01T20:43:32;8.80;99.90
20558;DHT22;10437;48.156;11.530;2023-04-01T20:46:05;8.80;99.90
20558;DHT22;10437;48.156;11.530;2023-04-01T20:48:52;8.80;99.90
20558;DHT22;10437;48.156;11.530;2023-04-01T20:51:26;8.80;99.90
20558;DHT22;10437;48.156;11.530;2023-04-01T20:54:05;8.80;99.90
20558;DHT22;10437;48.156;11.530;2023-04-01T20:56:45;8.80;99.90
20558;DHT22;10437;48.156;11.530;2023-04-01T21:05:01;8.70;99.90
20558;DHT22;10437;48.156;11.530;2023-04-01T21:10:17;8.80;99.90
20558;DHT22;10437;48.156;11.530;2023-04-01T21:12:50;8.70;99.90
20558;DHT22;10437;48.156;11.530;2023-04-01T21:15:32;8.80;99.90
20558;DHT22;10437;48.156;11.530;2023-04-01T21:18:18;8.70;99.90
20558;DHT22;10437;48.156;11.530;2023-04-01T21:21:15;8.80;99.90
20558;DHT22;10437;48.156;11.530;2023-04-01T21:24:01;8.70;99.90
20558;DHT22;10437;48.156;11.530;2023-04-01T21:26:41;8.80;99.90
20558;DHT22;10437;48.156;11.530;2023-04-01T21:32:15;8.70;99.90
20558;DHT22;10437;48.156;11.530;2023-04-01T21:34:49;8.80;99.90
20558;DHT22;10437;48.156;11.530;2023-04-01T21:37:31;8.80;99.90
20558;DHT22;10437;48.156;11.530;2023-04-01T21:40:32;8.80;99.90
20558;DHT22;10437;48.156;11.530;2023-04-01T21:45:50;8.70;99.90
20558;DHT22;10437;48.156;11.530;2023-04-01T21:51:41;8.80;99.90
20558;DHT22;10437;48.156;11.530;2023-04-01T21:54:39;8.70;99.90
20558;DHT22;10437;48.156;11.530;2023-04-01T21:57:46;8.70;99.90
20558;DHT22;10437;48.156;11.530;2023-04-01T22:00:21;8.80;99.90
20558;DHT22;10437;48.156;11.530;2023-04-01T22:03:20;8.90;99.90
20558;DHT22;10437;48.156;11.530;2023-04-01T22:05:56;8.80;99.90
20558;DHT22;10437;48.156;11.530;2023-04-01T22:08:37;8.90;99.90
20558;DHT22;10437;48.156;11.530;2023-04-01T22:11:13;8.80;99.90
20558;DHT22;10437;48.156;11.530;2023-04-01T22:13:50;8.90;99.90
20558;DHT22;10437;48.156;11.530;2023-04-01T22:16:22;8.90;99.90
20558;DHT22;10437;48.156;11.530;2023-04-01T22:18:55;8.80;99.90
20558;DHT22;10437;48.156;11.530;2023-04-01T22:21:31;8.80;99.90
20558;DHT22;10437;48.156;11.530;2023-04-01T22:24:08;8.90;99.90
20558;DHT22;10437;48.156;11.530;2023-04-01T22:26:42;8.70;99.90
20558;DHT22;10437;48.156;11.530;2023-04-01T22:29:15;8.80;99.90
20558;DHT22;10437;48.156;11.530;2023-04-01T22:31:47;8.70;99.90
20558;DHT22;10437;48.156;11.530;2023-04-01T22:34:22;8.70;99.90
20558;DHT22;10437;48.156;11.530;2023-04-01T22:36:56;8.80;99.90
20558;DHT22;10437;48.156;11.530;2023-04-01T22:39:38;8.90;99.90
20558;DHT22;10437;48.156;11.530;2023-04-01T22:42:18;8.70;99.90
20558;DHT22;10437;48.156;11.530;2023-04-01T22:44:58;8.80;99.90
20558;DHT22;10437;48.156;11.530;2023-04-01T22:47:34;8.90;99.90
20558;DHT22;10437;48.156;11.530;2023-04-01T22:50:10;8.90;99.90
20558;DHT22;10437;48.156;11.530;2023-04-01T22:52:42;8.80;99.90
20558;DHT22;10437;48.156;11.530;2023-04-01T22:57:45;8.80;99.90
20558;DHT22;10437;48.156;11.530;2023-04-01T23:00:15;8.90;99.90